Time;durP1;ratioP1;P1;durP2;ratioP2;P2;SDS_P1;SDS_P2;PMS_P1;PMS_P2;Temp;Humidity;BMP_temperature;BMP_pressure;BME280_temperature;BME280_humidity;BME280_pressure;Samples;Min_cycle;Max_cycle;Signal;HPM_P1;HPM_P2
2023/10/15 00:00:47;;;;;;;;;;;;;;;7.46;100.00;99929.72;4992456;28;19917;-82
2023/10/15 00:03:12;;;;;;;;;;;;;;;7.50;100.00;99927.84;4992247;28;19922;-82
2023/10/15 00:05:38;;;;;;;;;;;;;;;7.46;100.00;99935.84;4991488;28;20449;-83
2023/10/15 00:08:03;;;;;;;;;;;;;;;7.44;100.00;99937.66;4991724;28;19922;-82
2023/10/15 00:10:30;;;;;;;;;;;;;;;7.48;100.00;99934.94;4992433;28;19918;-81
2023/10/15 00:12:56;;;;;;;;;;;;;;;7.51;100.00;99935.72;4992119;28;19922;-83
2023/10/15 00:15:27;;;;;;;;;;;;;;;7.48;100.00;99934.94;4991660;28;20335;-82
2023/10/15 00:17:58;;;;;;;;;;;;;;;7.50;100.00;99939.28;4991633;28;19918;-84
2023/10/15 00:20:26;;;;;;;;;;;;;;;7.46;100.00;99949.03;4990398;28;19921;-83
2023/10/15 00:22:52;;;;;;;;;;;;;;;7.46;100.00;99949.03;4996320;28;20285;-82
2023/10/15 00:25:20;;;;;;;;;;;;;;;7.40;100.00;99938.69;4996054;28;19925;-81
2023/10/15 00:27:54;;;;;;;;;;;;;;;7.48;100.00;99945.50;4996362;28;19918;-88
2023/10/15 00:30:20;;;;;;;;;;;;;;;7.49;100.00;99932.28;4995131;28;19918;-83
2023/10/15 00:32:46;;;;;;;;;;;;;;;7.51;100.00;99933.09;4996300;28;19922;-83
2023/10/15 00:35:19;;;;;;;;;;;;;;;7.53;100.00;99935.69;4994989;28;19918;-85
2023/10/15 07:31:30;;;;;;;;;;;;;;;8.66;100.00;100104.91;5778770;23;19934;-85
2023/10/15 07:33:55;;;;;;;;;;;;;;;8.72;100.00;100107.34;4992063;28;19972;-83
2023/10/15 07:36:21;;;;;;;;;;;;;;;8.75;100.00;100104.63;4994004;28;19921;-83
2023/10/15 07:38:46;;;;;;;;;;;;;;;8.75;100.00;100096.69;4993025;28;19930;-83
2023/10/15 07:41:12;;;;;;;;;;;;;;;8.78;100.00;100106.31;4993180;28;19926;-87
2023/10/15 07:43:37;;;;;;;;;;;;;;;8.77;100.00;100109.88;4991628;28;19925;-86
2023/10/15 07:46:03;;;;;;;;;;;;;;;8.78;100.00;100103.69;4991784;28;19925;-85
2023/10/15 07:48:29;;;;;;;;;;;;;;;8.79;100.00;100108.91;4992872;28;19917;-84
2023/10/15 07:50:56;;;;;;;;;;;;;;;8.77;100.00;100104.59;4991668;28;20258;-85
2023/10/15 07:53:21;;;;;;;;;;;;;;;8.80;100.00;100108.00;4992919;28;19945;-84
2023/10/15 07:55:46;;;;;;;;;;;;;;;8.83;100.00;100109.69;4991527;28;20391;-85
2023/10/15 07:58:12;;;;;;;;;;;;;;;8.83;100.00;100112.31;4992717;28;20012;-86
2023/10/15 08:00:37;;;;;;;;;;;;;;;8.82;100.00;100116.75;4991334;28;20459;-86
2023/10/15 08:03:07;;;;;;;;;;;;;;;8.87;100.00;100114.84;4992771;28;19941;-86
2023/10/15 08:05:33;;;;;;;;;;;;;;;8.93;100.00;100126.13;4992701;28;19918;-86
2023/10/15 08:07:58;;;;;;;;;;;;;;;8.96;100.00;100132.16;4992565;28;20415;-85
2023/10/15 08:10:25;;;;;;;;;;;;;;;8.97;100.00;100130.41;4992513;28;19924;-84
2023/10/15 08:12:51;;;;;;;;;;;;;;;8.98;100.00;100140.06;4992628;28;19964;-88
2023/10/15 08:15:17;;;;;;;;;;;;;;;8.96;100.00;100137.47;4990534;28;19925;-86
2023/10/15 08:17:42;;;;;;;;;;;;;;;8.95;100.00;100138.38;4992526;28;19917;-86
2023/10/15 08:20:09;;;;;;;;;;;;;;;8.95;100.00;100146.31;4992734;28;19953;-86
2023/10/15 08:22:40;;;;;;;;;;;;;;;9.02;100.00;100141.69;4992624;28;19918;-86
2023/10/15 08:25:10;;;;;;;;;;;;;;;8.99;100.00;100145.28;4992548;28;20270;-86
2023/10/15 08:27:37;;;;;;;;;;;;;;;9.01;100.00;100132.03;4992785;28;20292;-83
2023/10/15 08:30:04;;;;;;;;;;;;;;;9.01;100.00;100135.53;4992413;28;20546;-82
2023/10/15 08:32:29;;;;;;;;;;;;;;;9.05;100.00;100137.19;4989162;28;20369;-83
2023/10/15 08:34:54;;;;;;;;;;;;;;;9.08;100.00;100128.31;4992277;28;19933;-84
2023/10/15 08:37:20;;;;;;;;;;;;;;;9.13;100.00;100133.44;4992461;28;19922;-84
2023/10/15 08:39:45;;;;;;;;;;;;;;;9.09;100.00;100127.38;4992574;28;20289;-87
2023/10/15 08:42:18;;;;;;;;;;;;;;;9.12;100.00;100132.56;4994519;28;19921;-81
2023/10/15 08:44:44;;;;;;;;;;;;;;;9.09;100.00;100132.66;4996012;28;19970;-87
2023/10/15 08:47:10;;;;;;;;;;;;;;;9.15;100.00;100132.47;4994914;28;20014;-86
2023/10/15 08:49:35;;;;;;;;;;;;;;;9.13;100.00;100134.31;4995864;28;19924;-84
2023/10/15 08:52:01;;;;;;;;;;;;;;;9.16;100.00;100136.84;4994758;28;20004;-87
2023/10/15 08:54:27;;;;;;;;;;;;;;;9.23;100.00;100145.44;4996057;28;19984;-86
2023/10/15 08:56:54;;;;;;;;;;;;;;;9.20;100.00;100135.81;4994473;28;19921;-83
2023/10/15 08:59:21;;;;;;;;;;;;;;;9.21;100.00;100137.56;4996123;28;19925;-85
2023/10/15 09:01:46;;;;;;;;;;;;;;;9.24;100.00;100141.91;4994294;28;19929;-85
2023/10/15 09:04:12;;;;;;;;;;;;;;;9.29;100.00;100134.69;4994728;28;20297;-84
2023/10/15 09:06:37;;;;;;;;;;;;;;;9.24;100.00;100141.91;4995823;28;19972;-83
2023/10/15 09:09:03;;;;;;;;;;;;;;;9.30;100.00;100146.09;4994381;28;20782;-84
2023/10/15 09:11:28;;;;;;;;;;;;;;;9.29;100.00;100150.53;4995750;28;19979;-85
2023/10/15 09:13:54;;;;;;;;;;;;;;;9.27;100.00;100141.81;4994357;28;19921;-86
2023/10/15 09:16:20;;;;;;;;;;;;;;;9.29;100.00;100139.97;4994563;28;19918;-84
2023/10/15 09:18:45;;;;;;;;;;;;;;;9.31;100.00;100143.41;4995633;28;20289;-85
2023/10/15 09:21:23;;;;;;;;;;;;;;;9.35;100.00;100146.81;4994416;28;19918;-85
2023/10/15 09:23:49;;;;;;;;;;;;;;;9.39;100.00;100151.97;4995437;28;19924;-87
2023/10/15 09:26:16;;;;;;;;;;;;;;;9.38;100.00;100141.44;4994200;28;19922;-85
2023/10/15 09:28:41;;;;;;;;;;;;;;;9.36;100.00;100135.34;4994101;28;20480;-85
2023/10/15 12:48:22;;;;;;;;;;;;;;;5.50;100.00;100175.25;5000525;28;20153;-85
2023/10/15 12:50:47;;;;;;;;;;;;;;;5.56;100.00;100183.06;5013792;28;19925;-85
2023/10/15 12:53:13;;;;;;;;;;;;;;;5.55;100.00;100179.56;5015152;28;19925;-85
2023/10/15 12:55:38;;;;;;;;;;;;;;;5.49;100.00;100177.03;5015736;28;19944;-85
2023/10/15 12:58:03;;;;;;;;;;;;;;;5.45;100.00;100175.31;5015522;28;19997;-85
2023/10/15 13:00:29;;;;;;;;;;;;;;;5.50;100.00;100173.50;5004099;28;19922;-84
2023/10/15 13:02:54;;;;;;;;;;;;;;;5.43;100.00;100171.88;5014765;28;19929;-84
2023/10/15 13:05:24;;;;;;;;;;;;;;;5.55;100.00;100163.78;5004673;28;19922;-81
2023/10/15 13:07:50;;;;;;;;;;;;;;;5.55;100.00;100169.06;5014542;28;19928;-82
2023/10/15 13:10:17;;;;;;;;;;;;;;;5.42;100.00;100164.88;5015174;28;19917;-82
2023/10/15 13:12:47;;;;;;;;;;;;;;;5.41;100.00;100166.63;5015304;28;19927;-82
2023/10/15 13:15:13;;;;;;;;;;;;;;;5.35;100.00;100166.72;5013663;28;19980;-83
2023/10/15 13:17:39;;;;;;;;;;;;;;;5.39;100.00;100170.16;5010954;28;19921;-83
2023/10/15 13:20:06;;;;;;;;;;;;;;;5.35;100.00;100171.13;5004264;28;19924;-82
2023/10/15 13:22:31;;;;;;;;;;;;;;;5.30;100.00;100167.66;5006385;28;19925;-82
2023/10/15 13:24:56;;;;;;;;;;;;;;;5.26;100.00;100175.63;5013784;28;20372;-82
2023/10/15 13:27:22;;;;;;;;;;;;;;;5.18;100.00;100180.09;5014536;28;20355;-84
2023/10/15 13:29:47;;;;;;;;;;;;;;;5.26;100.00;100178.25;5012380;28;20431;-82
2023/10/15 13:32:12;;;;;;;;;;;;;;;5.27;100.00;100182.59;5015010;28;19925;-86
2023/10/15 13:34:41;;;;;;;;;;;;;;;5.25;100.00;100175.66;5013679;28;19940;-88
2023/10/15 13:37:07;;;;;;;;;;;;;;;5.28;100.00;100181.72;5012905;28;20016;-86
2023/10/15 13:39:32;;;;;;;;;;;;;;;5.23;100.00;100182.66;5005090;28;20068;-85
2023/10/15 13:41:59;;;;;;;;;;;;;;;5.19;100.00;100175.72;5004805;28;19960;-85
2023/10/15 13:44:25;;;;;;;;;;;;;;;5.19;100.00;100187.09;5010820;28;19925;-85
2023/10/15 13:46:50;;;;;;;;;;;;;;;5.20;100.00;100183.59;5007407;28;20008;-86
2023/10/15 13:49:17;;;;;;;;;;;;;;;5.17;100.00;100186.25;5012636;28;20016;-86
2023/10/15 13:51:42;;;;;;;;;;;;;;;5.17;100.00;100194.16;5012862;28;19943;-85
2023/10/15 13:54:08;;;;;;;;;;;;;;;5.19;100.00;100189.72;5004827;28;19914;-85
2023/10/15 13:56:36;;;;;;;;;;;;;;;5.08;100.00;100183.75;5003493;28;19921;-88
2023/10/15 13:59:01;;;;;;;;;;;;;;;5.05;100.00;100196.94;5013093;28;19921;-85
2023/10/15 14:01:26;;;;;;;;;;;;;;;5.11;100.00;100194.22;5011829;28;19922;-84
2023/10/15 14:03:52;;;;;;;;;;;;;;;5.14;100.00;100194.19;5003156;28;20324;-83
2023/10/15 14:06:18;;;;;;;;;;;;;;;5.08;100.00;100192.50;5010527;28;19924;-83
2023/10/15 14:11:53;;;;;;;;;;;;;;;5.04;100.00;100182.94;4997716;28;19924;-85
2023/10/15 14:14:19;;;;;;;;;;;;;;;5.07;100.00;100200.41;5004317;28;19917;-86
2023/10/15 14:16:45;;;;;;;;;;;;;;;5.00;100.00;100190.88;5007466;28;20055;-85
2023/10/15 14:19:10;;;;;;;;;;;;;;;5.00;100.00;100198.75;5014113;28;19917;-83
2023/10/15 14:21:37;;;;;;;;;;;;;;;4.99;100.00;100200.50;5013122;28;20296;-88
2023/10/15 14:24:05;;;;;;;;;;;;;;;4.97;100.00;100199.66;5010883;28;20335;-86
2023/10/15 14:26:31;;;;;;;;;;;;;;;5.07;100.00;100203.03;5004448;28;19921;-82
2023/10/15 14:29:20;;;;;;;;;;;;;;;4.99;100.00;100200.50;5004534;28;19996;-92
2023/10/15 14:31:45;;;;;;;;;;;;;;;4.94;100.00;100201.47;5012191;28;19917;-92
2023/10/15 14:34:10;;;;;;;;;;;;;;;4.83;100.00;100198.97;5005904;28;19918;-85
2023/10/15 14:36:39;;;;;;;;;;;;;;;4.89;100.00;100207.63;5004297;28;19964;-86
2023/10/15 14:39:08;;;;;;;;;;;;;;;4.91;100.00;100203.25;5003417;28;19979;-85
2023/10/15 14:41:33;;;;;;;;;;;;;;;4.86;100.00;100204.19;5009071;28;19965;-84
2023/10/15 14:43:59;;;;;;;;;;;;;;;4.84;100.00;100201.59;5012835;28;20320;-86
2023/10/15 14:46:24;;;;;;;;;;;;;;;4.86;100.00;100206.81;5011617;28;19917;-87
2023/10/15 14:48:50;;;;;;;;;;;;;;;4.86;100.00;100199.78;5002683;28;20004;-87
2023/10/15 14:51:16;;;;;;;;;;;;;;;4.89;100.00;100207.63;5008219;28;20000;-86
2023/10/15 14:53:41;;;;;;;;;;;;;;;4.87;100.00;100212.03;5010177;28;20266;-86
2023/10/15 14:56:08;;;;;;;;;;;;;;;4.81;100.00;100212.13;5003230;28;19972;-85
2023/10/15 14:58:33;;;;;;;;;;;;;;;4.87;100.00;100217.31;5002843;28;19921;-84
2023/10/15 15:00:58;;;;;;;;;;;;;;;4.91;100.00;100212.88;5002382;28;19992;-83
2023/10/15 15:03:23;;;;;;;;;;;;;;;4.88;100.00;100220.78;5007207;28;19928;-84
2023/10/15 15:05:49;;;;;;;;;;;;;;;4.86;100.00;100223.44;5003668;28;20295;-84
2023/10/15 15:08:14;;;;;;;;;;;;;;;4.89;100.00;100219.91;5013042;28;20318;-84
2023/10/15 15:10:39;;;;;;;;;;;;;;;4.84;100.00;100222.59;5011076;28;19932;-84
2023/10/15 15:13:05;;;;;;;;;;;;;;;4.85;100.00;100229.59;5011891;28;19925;-84
2023/10/15 15:15:30;;;;;;;;;;;;;;;4.89;100.00;100220.75;5009220;28;20014;-84
2023/10/15 15:17:56;;;;;;;;;;;;;;;4.85;100.00;100221.72;5010289;28;19928;-86
2023/10/15 15:20:21;;;;;;;;;;;;;;;4.75;100.00;100220.06;5026855;28;20047;-84
2023/10/15 15:22:47;;;;;;;;;;;;;;;4.81;100.00;100222.63;5009698;28;20015;-83
2023/10/15 15:25:12;;;;;;;;;;;;;;;4.76;100.00;100224.44;5010894;28;20308;-85
2023/10/15 15:27:39;;;;;;;;;;;;;;;4.82;100.00;100229.63;5010860;28;19922;-83
2023/10/15 15:30:08;;;;;;;;;;;;;;;4.85;100.00;100224.34;5011620;28;20557;-86
2023/10/15 15:32:34;;;;;;;;;;;;;;;4.74;100.00;100226.22;5012676;28;19921;-83
2023/10/15 15:34:59;;;;;;;;;;;;;;;4.77;100.00;100233.19;5009841;28;20258;-83
2023/10/15 15:37:54;;;;;;;;;;;;;;;4.79;100.00;100227.03;5012860;28;19940;-86
2023/10/15 15:40:19;;;;;;;;;;;;;;;4.78;100.00;100230.53;5004296;28;19918;-84
2023/10/15 15:42:45;;;;;;;;;;;;;;;4.77;100.00;100226.19;5003214;28;19926;-83
2023/10/15 15:45:12;;;;;;;;;;;;;;;4.79;100.00;100229.66;5011325;28;19917;-86
2023/10/15 15:47:37;;;;;;;;;;;;;;;4.73;100.00;100224.47;5011498;28;19965;-86
2023/10/15 15:50:03;;;;;;;;;;;;;;;4.68;100.00;100231.53;5002830;28;20399;-84
2023/10/15 15:52:31;;;;;;;;;;;;;;;4.70;100.00;100235.00;5002829;28;19988;-85
2023/10/15 15:54:59;;;;;;;;;;;;;;;4.68;100.00;100242.03;5008199;28;19929;-90
2023/10/15 15:57:24;;;;;;;;;;;;;;;4.69;100.00;100238.50;5021038;28;19917;-92
2023/10/15 15:59:51;;;;;;;;;;;;;;;4.68;100.00;100242.91;5002481;28;19924;-85
2023/10/15 16:05:03;;;;;;;;;;;;;;;4.63;100.00;100252.59;5013570;28;19931;-85
2023/10/15 16:07:28;;;;;;;;;;;;;;;4.65;100.00;100252.56;5011041;28;19996;-86
2023/10/15 16:09:54;;;;;;;;;;;;;;;4.64;100.00;100261.31;5011191;28;19922;-86
2023/10/15 16:12:19;;;;;;;;;;;;;;;4.67;100.00;100256.91;5010217;28;19921;-86
2023/10/15 16:14:44;;;;;;;;;;;;;;;4.73;100.00;100261.22;5001661;28;19918;-85
2023/10/15 16:17:10;;;;;;;;;;;;;;;4.73;100.00;100263.84;5011487;28;19925;-86
2023/10/15 16:19:37;;;;;;;;;;;;;;;4.64;100.00;100261.31;5002820;28;19917;-86
2023/10/15 16:22:05;;;;;;;;;;;;;;;4.65;100.00;100273.56;5013471;28;19917;-89
2023/10/15 16:24:30;;;;;;;;;;;;;;;4.63;100.00;100276.22;5002716;28;20377;-86
2023/10/15 16:26:56;;;;;;;;;;;;;;;5.12;100.00;100279.16;5011893;28;19968;-85
2023/10/15 16:29:21;;;;;;;;;;;;;;;5.89;100.00;100283.31;5012178;28;19922;-86
2023/10/15 16:31:46;;;;;;;;;;;;;;;6.27;100.00;100287.09;5000294;28;20288;-86
2023/10/15 16:34:12;;;;;;;;;;;;;;;6.52;100.00;100296.31;5012193;28;19921;-85
2023/10/15 16:36:37;;;;;;;;;;;;;;;6.72;100.00;100293.31;5010632;28;19921;-81
2023/10/15 16:39:02;;;;;;;;;;;;;;;6.88;100.00;100296.53;5007323;28;19925;-85
2023/10/15 16:41:28;;;;;;;;;;;;;;;7.01;100.00;100310.31;5001791;28;19928;-84
2023/10/15 16:43:53;;;;;;;;;;;;;;;7.12;100.00;100311.91;5001097;28;19924;-84
2023/10/15 16:46:18;;;;;;;;;;;;;;;7.21;100.00;100312.56;5010535;28;19925;-85
2023/10/15 16:48:43;;;;;;;;;;;;;;;7.30;100.00;100321.19;5010983;28;20327;-85
2023/10/15 16:51:09;;;;;;;;;;;;;;;7.34;100.00;100315.81;5002947;28;19930;-86
2023/10/15 16:53:34;;;;;;;;;;;;;;;7.45;100.00;100328.75;5002026;28;20353;-85
2023/10/15 16:56:05;;;;;;;;;;;;;;;7.55;100.00;100332.09;5011781;28;20321;-90
2023/10/15 16:58:33;;;;;;;;;;;;;;;7.62;100.00;100346.84;5009132;28;20408;-87
2023/10/15 17:00:58;;;;;;;;;;;;;;;7.66;100.00;100342.38;4999323;28;19977;-85
2023/10/15 17:03:23;;;;;;;;;;;;;;;7.69;100.00;100335.28;5005208;28;19921;-84
2023/10/15 17:05:49;;;;;;;;;;;;;;;7.77;100.00;100343.00;5011220;28;19925;-85
2023/10/15 17:08:14;;;;;;;;;;;;;;;7.79;100.00;100342.06;5014056;28;19975;-83
2023/10/15 17:10:40;;;;;;;;;;;;;;;7.88;100.00;100343.66;5013960;28;19917;-84
2023/10/15 17:16:25;;;;;;;;;;;;;;;8.01;100.00;100349.50;4970866;28;20285;-89
2023/10/15 17:18:50;;;;;;;;;;;;;;;8.05;100.00;100353.78;5004675;28;19921;-85
2023/10/15 17:21:19;;;;;;;;;;;;;;;8.07;100.00;100362.53;5012593;28;20453;-89
2023/10/15 17:23:44;;;;;;;;;;;;;;;8.13;100.00;100365.03;5012795;28;20409;-86
2023/10/15 17:26:10;;;;;;;;;;;;;;;8.17;100.00;100361.44;5013612;28;19933;-88
2023/10/15 17:28:35;;;;;;;;;;;;;;;8.21;100.00;100366.66;5013739;28;20371;-86
2023/10/15 17:31:03;;;;;;;;;;;;;;;8.26;100.00;100368.25;5008866;28;19921;-88
2023/10/15 17:33:29;;;;;;;;;;;;;;;8.28;100.00;100371.75;5011243;28;19929;-87
2023/10/15 17:35:54;;;;;;;;;;;;;;;8.32;100.00;100375.16;5009540;28;19925;-85
2023/10/15 17:38:19;;;;;;;;;;;;;;;8.34;100.00;100378.63;4993241;28;20044;-85
2023/10/15 17:40:45;;;;;;;;;;;;;;;8.39;100.00;100373.25;5009209;28;19921;-84
2023/10/15 17:43:11;;;;;;;;;;;;;;;8.45;100.00;100378.41;4992863;28;19926;-85
2023/10/15 17:45:39;;;;;;;;;;;;;;;8.47;100.00;100382.75;5011166;28;19918;-85
2023/10/15 17:48:05;;;;;;;;;;;;;;;8.48;100.00;100380.97;5011012;28;20000;-85
2023/10/15 17:50:31;;;;;;;;;;;;;;;8.50;100.00;100382.69;5011436;28;20016;-88
2023/10/15 17:52:56;;;;;;;;;;;;;;;8.54;100.00;100375.53;5010129;28;19965;-87
2023/10/15 17:55:23;;;;;;;;;;;;;;;8.61;100.00;100378.91;5010064;28;19940;-85
2023/10/15 17:57:49;;;;;;;;;;;;;;;8.64;100.00;100377.03;4995472;28;19928;-86
2023/10/15 18:01:05;;;;;;;;;;;;;;;8.71;100.00;100369.81;5004164;28;20116;-85
2023/10/15 18:03:32;;;;;;;;;;;;;;;8.78;100.00;100387.25;4982780;28;19933;-85
2023/10/15 18:05:57;;;;;;;;;;;;;;;8.80;100.00;100381.94;5013300;28;19917;-86
2023/10/15 18:08:22;;;;;;;;;;;;;;;8.80;100.00;100380.16;5005093;28;19925;-85
2023/10/15 18:10:51;;;;;;;;;;;;;;;8.86;100.00;100380.00;5009854;23;19972;-87
2023/10/15 18:13:16;;;;;;;;;;;;;;;8.91;100.00;100379.88;5007720;28;19922;-85
2023/10/15 18:15:42;;;;;;;;;;;;;;;8.95;100.00;100378.00;4990155;28;20341;-85
2023/10/15 18:18:07;;;;;;;;;;;;;;;8.65;100.00;100372.66;4991928;28;19976;-85
2023/10/15 18:20:33;;;;;;;;;;;;;;;7.26;100.00;100378.38;4992226;28;19921;-85
2023/10/15 18:22:59;;;;;;;;;;;;;;;6.77;100.00;100385.41;4992028;28;20288;-86
2023/10/15 18:25:24;;;;;;;;;;;;;;;6.54;100.00;100377.91;4991989;28;20024;-85
2023/10/15 18:27:50;;;;;;;;;;;;;;;6.30;100.00;100390.59;4991704;28;19940;-85
2023/10/15 18:30:15;;;;;;;;;;;;;;;6.17;100.00;100391.66;4991452;28;19925;-84
2023/10/15 18:32:41;;;;;;;;;;;;;;;6.09;100.00;100385.66;4993253;28;19933;-85
2023/10/15 18:35:06;;;;;;;;;;;;;;;5.96;100.00;100390.19;4992729;28;20703;-85
2023/10/15 18:37:31;;;;;;;;;;;;;;;5.94;100.00;100384.09;4993367;28;20024;-86
2023/10/15 18:39:57;;;;;;;;;;;;;;;5.85;100.00;100386.84;4991873;28;19976;-85
2023/10/15 18:42:22;;;;;;;;;;;;;;;5.87;100.00;100387.69;4992085;28;20014;-85
2023/10/15 18:44:47;;;;;;;;;;;;;;;5.74;100.00;100393.09;4991037;28;19961;-86
2023/10/15 18:47:13;;;;;;;;;;;;;;;5.68;100.00;100394.94;4991973;28;19918;-87
2023/10/15 18:49:40;;;;;;;;;;;;;;;5.68;100.00;100394.94;4993005;28;19921;-90
2023/10/15 18:52:05;;;;;;;;;;;;;;;5.64;100.00;100394.97;4993172;28;19922;-86
2023/10/15 18:54:34;;;;;;;;;;;;;;;5.58;100.00;100392.44;5007912;28;20056;-87
2023/10/15 18:56:59;;;;;;;;;;;;;;;5.55;100.00;100392.50;4992923;28;20440;-89
2023/10/15 18:59:24;;;;;;;;;;;;;;;5.48;100.00;100395.22;4993204;28;20044;-88
2023/10/15 19:01:50;;;;;;;;;;;;;;;5.46;100.00;100395.22;4992074;28;20258;-83
2023/10/15 19:04:15;;;;;;;;;;;;;;;5.40;100.00;100400.56;4991584;28;19926;-87
2023/10/15 19:06:41;;;;;;;;;;;;;;;5.39;100.00;100390.91;4991376;28;19955;-87
2023/10/15 19:09:07;;;;;;;;;;;;;;;5.32;100.00;100399.78;4992783;28;20008;-87
2023/10/15 19:11:32;;;;;;;;;;;;;;;5.26;100.00;100404.22;5007504;28;20484;-87
2023/10/15 19:13:58;;;;;;;;;;;;;;;5.27;100.00;100400.69;4992606;28;19922;-87
2023/10/15 19:16:24;;;;;;;;;;;;;;;5.28;100.00;100402.44;4991624;28;20321;-87
2023/10/15 19:18:49;;;;;;;;;;;;;;;5.25;100.00;100402.47;4992754;28;19918;-87
2023/10/15 19:21:15;;;;;;;;;;;;;;;5.26;100.00;100406.84;4992635;28;19933;-87
2023/10/15 19:23:43;;;;;;;;;;;;;;;5.24;100.00;100405.97;4992592;28;19976;-87
2023/10/15 19:26:10;;;;;;;;;;;;;;;5.20;100.00;100406.91;4991636;28;19925;-87
2023/10/15 19:28:37;;;;;;;;;;;;;;;5.15;100.00;100411.34;4992642;28;19918;-87
2023/10/15 19:31:02;;;;;;;;;;;;;;;5.16;100.00;100397.31;4990004;28;19964;-87
2023/10/15 19:33:31;;;;;;;;;;;;;;;5.11;100.00;100393.88;4991853;28;19968;-88
2023/10/15 19:35:57;;;;;;;;;;;;;;;5.05;100.00;100400.06;4992442;28;19953;-87
2023/10/15 19:38:23;;;;;;;;;;;;;;;5.02;100.00;100410.59;4990969;28;19953;-86
2023/10/15 19:40:56;;;;;;;;;;;;;;;4.95;100.00;100418.56;4992360;28;19925;-87
2023/10/15 19:43:21;;;;;;;;;;;;;;;5.00;100.00;100422.03;4991063;28;19918;-87
2023/10/15 19:45:47;;;;;;;;;;;;;;;4.99;100.00;100420.25;4990106;28;19972;-87
2023/10/15 19:48:13;;;;;;;;;;;;;;;4.95;100.00;100416.81;4990941;28;19921;-88
2023/10/15 19:50:39;;;;;;;;;;;;;;;4.88;100.00;100415.09;4992258;28;19918;-87
2023/10/15 19:53:05;;;;;;;;;;;;;;;4.88;100.00;100413.38;4992107;28;19917;-87
2023/10/15 19:55:31;;;;;;;;;;;;;;;4.87;100.00;100414.25;4992217;28;20306;-86
2023/10/15 19:57:56;;;;;;;;;;;;;;;4.84;100.00;100423.91;4992161;28;19933;-86
2023/10/15 20:00:25;;;;;;;;;;;;;;;4.91;100.00;100429.09;4990852;28;19925;-86
2023/10/15 20:02:52;;;;;;;;;;;;;;;4.90;100.00;100427.34;4991474;28;19921;-86
2023/10/15 20:05:17;;;;;;;;;;;;;;;4.86;100.00;100436.13;4990652;28;20396;-86
2023/10/15 20:07:43;;;;;;;;;;;;;;;4.87;100.00;100426.50;4991972;28;19917;-86
2023/10/15 20:10:11;;;;;;;;;;;;;;;4.83;100.00;100424.78;4990356;28;20455;-86
2023/10/15 20:12:37;;;;;;;;;;;;;;;4.87;100.00;100437.03;4991725;28;19918;-86
2023/10/15 20:15:06;;;;;;;;;;;;;;;4.80;100.00;100444.06;4989596;28;19929;-87
2023/10/15 20:17:32;;;;;;;;;;;;;;;5.58;100.00;100445.00;4991597;28;19922;-86
2023/10/15 20:19:57;;;;;;;;;;;;;;;6.20;100.00;100441.63;5007017;28;19928;-87
2023/10/15 20:22:23;;;;;;;;;;;;;;;6.54;100.00;100435.81;4990724;28;20017;-86
2023/10/15 20:24:48;;;;;;;;;;;;;;;6.75;100.00;100429.38;4991891;28;20369;-87
2023/10/15 20:27:13;;;;;;;;;;;;;;;6.96;100.00;100428.13;5006835;28;19925;-87
2023/10/15 20:29:39;;;;;;;;;;;;;;;7.10;100.00;100430.50;4992133;28;20328;-86
2023/10/15 20:32:05;;;;;;;;;;;;;;;7.22;100.00;100435.53;4990659;28;19925;-86
2023/10/15 20:34:30;;;;;;;;;;;;;;;7.32;100.00;100441.50;4992103;28;19918;-86
2023/10/15 20:36:55;;;;;;;;;;;;;;;7.41;100.00;100441.31;4992002;28;19928;-87
2023/10/15 20:39:21;;;;;;;;;;;;;;;7.53;100.00;100434.06;5009620;28;20004;-86
2023/10/15 20:41:47;;;;;;;;;;;;;;;7.61;100.00;100429.50;4994460;28;19921;-87
2023/10/15 20:44:12;;;;;;;;;;;;;;;7.69;100.00;100426.72;4995671;28;19939;-91
2023/10/15 20:46:38;;;;;;;;;;;;;;;7.73;100.00;100434.53;4994452;28;19928;-86
2023/10/15 20:49:04;;;;;;;;;;;;;;;7.79;100.00;100438.84;5010487;28;19926;-86
2023/10/15 20:51:31;;;;;;;;;;;;;;;7.89;100.00;100443.00;4995500;28;19918;-85
2023/10/15 20:53:56;;;;;;;;;;;;;;;7.93;100.00;100439.41;4994152;28;19949;-85
2023/10/15 20:56:21;;;;;;;;;;;;;;;7.99;100.00;100428.72;4995258;28;19971;-86
2023/10/15 20:58:47;;;;;;;;;;;;;;;8.07;100.00;100435.59;4995368;28;20293;-86
2023/10/15 21:01:12;;;;;;;;;;;;;;;8.12;100.00;100439.88;4994003;28;19918;-86
2023/10/15 21:03:37;;;;;;;;;;;;;;;8.21;100.00;100437.91;4995468;28;19922;-86
2023/10/15 21:06:04;;;;;;;;;;;;;;;8.25;100.00;100429.00;4995098;28;19917;-86
2023/10/15 21:08:38;;;;;;;;;;;;;;;8.27;100.00;100428.09;4995831;28;19922;-88
2023/10/15 21:11:03;;;;;;;;;;;;;;;8.35;100.00;100420.84;4994854;28;19929;-86
2023/10/15 21:13:29;;;;;;;;;;;;;;;8.42;100.00;100426.00;4993743;28;19918;-87
2023/10/15 21:15:55;;;;;;;;;;;;;;;8.45;100.00;100415.38;4992710;28;20610;-88
2023/10/15 21:18:20;;;;;;;;;;;;;;;8.51;100.00;100420.53;4994747;28;19922;-87
2023/10/15 21:21:06;;;;;;;;;;;;;;;8.57;100.00;100416.84;4993798;28;19965;-91
2023/10/15 21:23:31;;;;;;;;;;;;;;;8.62;100.00;100413.19;4994691;28;20008;-87
2023/10/15 21:25:56;;;;;;;;;;;;;;;8.67;100.00;100410.44;4994902;28;20456;-87
2023/10/15 21:28:24;;;;;;;;;;;;;;;8.69;100.00;100393.63;4993259;28;19917;-87
2023/10/15 21:30:49;;;;;;;;;;;;;;;8.73;100.00;100405.00;4992518;28;19918;-88
2023/10/15 21:33:14;;;;;;;;;;;;;;;8.78;100.00;100403.13;4993712;28;19925;-86
2023/10/15 21:35:40;;;;;;;;;;;;;;;8.82;100.00;100402.13;4994428;28;19975;-87
2023/10/15 21:38:05;;;;;;;;;;;;;;;8.87;100.00;100402.00;4994648;28;19925;-87
2023/10/15 21:40:32;;;;;;;;;;;;;;;8.89;100.00;100400.19;4993346;28;20377;-90
2023/10/15 21:42:57;;;;;;;;;;;;;;;8.93;100.00;100396.56;4994587;28;19918;-86
2023/10/15 21:45:22;;;;;;;;;;;;;;;8.93;100.00;100391.25;4991710;28;19917;-87
2023/10/15 21:47:55;;;;;;;;;;;;;;;8.69;100.00;100395.41;4994570;28;19922;-86
2023/10/15 21:50:20;;;;;;;;;;;;;;;7.22;100.00;100403.03;5007818;28;19918;-87
2023/10/15 21:52:46;;;;;;;;;;;;;;;6.72;100.00;100401.31;4994451;28;19924;-89
2023/10/15 21:55:13;;;;;;;;;;;;;;;6.49;100.00;100398.19;4992929;28;20377;-87
2023/10/15 21:57:41;;;;;;;;;;;;;;;6.24;100.00;100395.06;4994223;28;19921;-88
2023/10/15 22:00:20;;;;;;;;;;;;;;;6.11;100.00;100402.28;4993073;28;19917;-87
2023/10/15 22:02:45;;;;;;;;;;;;;;;5.93;100.00;100411.28;4994250;28;20000;-85
2023/10/15 22:05:31;;;;;;;;;;;;;;;5.85;100.00;100406.13;4992803;28;20008;-86
2023/10/15 22:07:56;;;;;;;;;;;;;;;5.71;100.00;100408.06;4994162;28;19917;-87
2023/10/15 22:10:26;;;;;;;;;;;;;;;5.74;100.00;100402.75;4992453;28;19926;-86
2023/10/15 22:12:51;;;;;;;;;;;;;;;5.60;100.00;100403.81;4992707;28;19925;-86
2023/10/15 22:15:16;;;;;;;;;;;;;;;5.66;100.00;100407.25;4992551;28;19924;-86
2023/10/15 22:17:47;;;;;;;;;;;;;;;5.51;100.00;100409.19;4993937;28;19930;-87
2023/10/15 22:20:19;;;;;;;;;;;;;;;5.39;100.00;100411.94;4993402;28;19925;-87
2023/10/15 22:22:45;;;;;;;;;;;;;;;5.35;100.00;100407.63;4993822;28;19930;-87
2023/10/15 22:25:11;;;;;;;;;;;;;;;5.30;100.00;100410.31;4992399;28;20383;-86
2023/10/15 22:27:36;;;;;;;;;;;;;;;5.27;100.00;100410.34;4993634;28;19918;-87
2023/10/15 22:30:05;;;;;;;;;;;;;;;5.28;100.00;100410.34;4992333;28;19922;-86
2023/10/15 22:32:30;;;;;;;;;;;;;;;5.21;100.00;100405.16;4993522;28;19918;-87
2023/10/15 22:34:59;;;;;;;;;;;;;;;5.19;100.00;100399.06;4993712;28;20297;-86
2023/10/15 22:37:24;;;;;;;;;;;;;;;5.21;100.00;100398.13;4993278;28;20508;-85
2023/10/15 22:39:50;;;;;;;;;;;;;;;5.13;100.00;100392.09;4992604;28;20458;-86
2023/10/15 22:42:15;;;;;;;;;;;;;;;5.12;100.00;100398.22;4992004;28;19922;-86
2023/10/15 22:44:44;;;;;;;;;;;;;;;5.06;100.00;100393.06;5008274;28;19918;-86
2023/10/15 22:47:09;;;;;;;;;;;;;;;5.06;100.00;100388.66;4992077;28;20530;-87
2023/10/15 22:49:34;;;;;;;;;;;;;;;5.06;100.00;100390.44;4993109;28;19965;-86
2023/10/15 22:52:00;;;;;;;;;;;;;;;5.05;100.00;100393.94;4992828;28;19918;-85
2023/10/15 22:54:28;;;;;;;;;;;;;;;5.00;100.00;100386.09;4992963;28;19925;-86